sensor_id;sensor_type;location;lat;lon;timestamp;pressure;altitude;pressure_sealevel;temperature;humidity
7333;BME280;3707;43.618;25.342;2023-02-16T00:01:20;101574.28;;;3.35;100.00
7333;BME280;3707;43.618;25.342;2023-02-16T00:03:47;101581.66;;;3.30;100.00
7333;BME280;3707;43.618;25.342;2023-02-16T00:06:16;101554.06;;;3.15;100.00
7333;BME280;3707;43.618;25.342;2023-02-16T00:08:44;101573.97;;;3.30;100.00
7333;BME280;3707;43.618;25.342;2023-02-16T00:11:14;101554.63;;;3.35;100.00
7333;BME280;3707;43.618;25.342;2023-02-16T00:13:59;101567.69;;;3.38;100.00
7333;BME280;3707;43.618;25.342;2023-02-16T00:16:26;101547.59;;;3.20;100.00
7333;BME280;3707;43.618;25.342;2023-02-16T00:18:53;101573.31;;;3.46;100.00
7333;BME280;3707;43.618;25.342;2023-02-16T00:21:21;101568.75;;;3.80;100.00
7333;BME280;3707;43.618;25.342;2023-02-16T00:23:49;101564.78;;;4.11;100.00
7333;BME280;3707;43.618;25.342;2023-02-16T00:26:16;101572.50;;;4.37;100.00
7333;BME280;3707;43.618;25.342;2023-02-16T00:28:44;101568.13;;;4.49;100.00
7333;BME280;3707;43.618;25.342;2023-02-16T00:31:16;101575.09;;;4.65;100.00
7333;BME280;3707;43.618;25.342;2023-02-16T00:33:44;101572.91;;;4.71;100.00
7333;BME280;3707;43.618;25.342;2023-02-16T00:36:11;101550.72;;;4.59;100.00
7333;BME280;3707;43.618;25.342;2023-02-16T00:38:39;101562.63;;;4.71;100.00
7333;BME280;3707;43.618;25.342;2023-02-16T00:41:14;101575.66;;;4.87;100.00
7333;BME280;3707;43.618;25.342;2023-02-16T00:44:04;101577.63;;;4.91;100.00
7333;BME280;3707;43.618;25.342;2023-02-16T00:46:31;101580.56;;;4.97;100.00
7333;BME280;3707;43.618;25.342;2023-02-16T00:48:58;101578.28;;;5.02;100.00
7333;BME280;3707;43.618;25.342;2023-02-16T00:51:25;101579.25;;;5.04;100.00
7333;BME280;3707;43.618;25.342;2023-02-16T00:53:53;101575.09;;;5.06;100.00
7333;BME280;3707;43.618;25.342;2023-02-16T00:56:20;101554.84;;;4.97;100.00
7333;BME280;3707;43.618;25.342;2023-02-16T00:58:49;101570.94;;;5.08;100.00
7333;BME280;3707;43.618;25.342;2023-02-16T01:01:20;101572.00;;;5.12;100.00
7333;BME280;3707;43.618;25.342;2023-02-16T01:03:48;101563.94;;;5.06;100.00
7333;BME280;3707;43.618;25.342;2023-02-16T01:06:15;101572.88;;;5.12;100.00
7333;BME280;3707;43.618;25.342;2023-02-16T01:09:11;101573.06;;;5.15;100.00
7333;BME280;3707;43.618;25.342;2023-02-16T01:11:56;101570.69;;;4.90;100.00
7333;BME280;3707;43.618;25.342;2023-02-16T01:14:23;101567.50;;;4.67;100.00
7333;BME280;3707;43.618;25.342;2023-02-16T01:16:50;101567.44;;;4.39;100.00
7333;BME280;3707;43.618;25.342;2023-02-16T01:19:17;101563.06;;;4.10;100.00
7333;BME280;3707;43.618;25.342;2023-02-16T01:21:44;101559.44;;;3.69;100.00
7333;BME280;3707;43.618;25.342;2023-02-16T01:24:12;101525.78;;;3.38;100.00
7333;BME280;3707;43.618;25.342;2023-02-16T01:26:41;101556.41;;;3.36;100.00
7333;BME280;3707;43.618;25.342;2023-02-16T01:29:12;101556.75;;;3.16;100.00
7333;BME280;3707;43.618;25.342;2023-02-16T01:31:39;101550.06;;;2.93;100.00
7333;BME280;3707;43.618;25.342;2023-02-16T01:34:06;101543.00;;;2.78;100.00
7333;BME280;3707;43.618;25.342;2023-02-16T01:36:35;101543.13;;;2.68;100.00
7333;BME280;3707;43.618;25.342;2023-02-16T01:39:03;101536.81;;;2.63;100.00
7333;BME280;3707;43.618;25.342;2023-02-16T01:41:53;101491.81;;;2.41;100.00
7333;BME280;3707;43.618;25.342;2023-02-16T01:44:23;101532.75;;;2.53;100.00
7333;BME280;3707;43.618;25.342;2023-02-16T01:46:52;101536.28;;;2.55;100.00
7333;BME280;3707;43.618;25.342;2023-02-16T01:49:21;101536.16;;;2.54;100.00
7333;BME280;3707;43.618;25.342;2023-02-16T01:51:52;101540.06;;;2.60;100.00
7333;BME280;3707;43.618;25.342;2023-02-16T01:54:30;101534.25;;;2.63;100.00
7333;BME280;3707;43.618;25.342;2023-02-16T01:57:04;101536.03;;;2.64;100.00
7333;BME280;3707;43.618;25.342;2023-02-16T01:59:38;101531.13;;;2.67;100.00
7333;BME280;3707;43.618;25.342;2023-02-16T02:02:13;101522.88;;;2.71;100.00
7333;BME280;3707;43.618;25.342;2023-02-16T02:04:43;101528.00;;;2.71;100.00
7333;BME280;3707;43.618;25.342;2023-02-16T02:07:36;101532.31;;;2.72;100.00
7333;BME280;3707;43.618;25.342;2023-02-16T02:10:10;101524.63;;;2.72;100.00
7333;BME280;3707;43.618;25.342;2023-02-16T02:12:46;101500.28;;;2.65;100.00
7333;BME280;3707;43.618;25.342;2023-02-16T02:15:16;101522.59;;;2.79;100.00
7333;BME280;3707;43.618;25.342;2023-02-16T02:17:45;101517.16;;;2.75;100.00
7333;BME280;3707;43.618;25.342;2023-02-16T02:20:15;101523.72;;;2.83;100.00
7333;BME280;3707;43.618;25.342;2023-02-16T02:29:20;101533.50;;;2.88;100.00
7333;BME280;3707;43.618;25.342;2023-02-16T02:31:56;101515.06;;;2.69;100.00
7333;BME280;3707;43.618;25.342;2023-02-16T02:34:29;101541.22;;;2.77;100.00
7333;BME280;3707;43.618;25.342;2023-02-16T02:37:05;101537.56;;;2.73;100.00
7333;BME280;3707;43.618;25.342;2023-02-16T02:39:42;101534.66;;;2.69;100.00
7333;BME280;3707;43.618;25.342;2023-02-16T02:42:12;101536.81;;;2.63;100.00
7333;BME280;3707;43.618;25.342;2023-02-16T02:44:47;101508.59;;;2.49;100.00
7333;BME280;3707;43.618;25.342;2023-02-16T02:47:14;101530.13;;;2.65;100.00
7333;BME280;3707;43.618;25.342;2023-02-16T02:49:48;101527.88;;;2.69;100.00
7333;BME280;3707;43.618;25.342;2023-02-16T02:52:15;101512.34;;;2.55;100.00
7333;BME280;3707;43.618;25.342;2023-02-16T02:54:43;101529.97;;;2.75;100.00
7333;BME280;3707;43.618;25.342;2023-02-16T02:57:32;101527.41;;;2.75;100.00
7333;BME280;3707;43.618;25.342;2023-02-16T03:00:23;101525.31;;;2.69;100.00
7333;BME280;3707;43.618;25.342;2023-02-16T03:03:14;101538.25;;;2.71;100.00
7333;BME280;3707;43.618;25.342;2023-02-16T03:05:47;101530.25;;;2.66;100.00
7333;BME280;3707;43.618;25.342;2023-02-16T03:08:19;101499.00;;;2.47;100.00
7333;BME280;3707;43.618;25.342;2023-02-16T03:10:50;101516.47;;;2.53;100.00
7333;BME280;3707;43.618;25.342;2023-02-16T03:13:38;101538.00;;;2.68;100.00
7333;BME280;3707;43.618;25.342;2023-02-16T03:16:12;101532.03;;;2.67;100.00
7333;BME280;3707;43.618;25.342;2023-02-16T03:18:40;101535.25;;;2.65;100.00
7333;BME280;3707;43.618;25.342;2023-02-16T03:21:26;101521.13;;;2.58;100.00
7333;BME280;3707;43.618;25.342;2023-02-16T03:24:14;101537.22;;;2.69;100.00
7333;BME280;3707;43.618;25.342;2023-02-16T03:27:01;101530.44;;;2.69;100.00
7333;BME280;3707;43.618;25.342;2023-02-16T03:29:46;101530.97;;;2.77;100.00
7333;BME280;3707;43.618;25.342;2023-02-16T03:32:16;101526.38;;;2.84;100.00
7333;BME280;3707;43.618;25.342;2023-02-16T03:34:43;101510.50;;;2.77;100.00
7333;BME280;3707;43.618;25.342;2023-02-16T03:37:10;101511.66;;;2.82;100.00
7333;BME280;3707;43.618;25.342;2023-02-16T03:39:38;101531.91;;;2.90;100.00
7333;BME280;3707;43.618;25.342;2023-02-16T03:42:19;101531.47;;;2.96;100.00
7333;BME280;3707;43.618;25.342;2023-02-16T03:44:47;101529.69;;;2.95;100.00
7333;BME280;3707;43.618;25.342;2023-02-16T03:47:16;101519.22;;;2.92;100.00
7333;BME280;3707;43.618;25.342;2023-02-16T03:49:43;101526.34;;;2.96;100.00
7333;BME280;3707;43.618;25.342;2023-02-16T03:52:10;101529.13;;;2.99;100.00
7333;BME280;3707;43.618;25.342;2023-02-16T03:54:36;101526.53;;;2.99;100.00
7333;BME280;3707;43.618;25.342;2023-02-16T03:57:03;101526.53;;;2.99;100.00
7333;BME280;3707;43.618;25.342;2023-02-16T03:59:30;101530.56;;;2.95;100.00
7333;BME280;3707;43.618;25.342;2023-02-16T04:01:57;101527.13;;;2.95;100.00
7333;BME280;3707;43.618;25.342;2023-02-16T04:04:25;101529.88;;;2.98;100.00
7333;BME280;3707;43.618;25.342;2023-02-16T04:06:52;101527.91;;;2.94;100.00
7333;BME280;3707;43.618;25.342;2023-02-16T04:09:19;101515.88;;;2.93;100.00
7333;BME280;3707;43.618;25.342;2023-02-16T04:11:45;101518.66;;;2.96;100.00
7333;BME280;3707;43.618;25.342;2023-02-16T04:14:30;101505.97;;;2.86;100.00
7333;BME280;3707;43.618;25.342;2023-02-16T04:16:57;101527.44;;;2.99;100.00
7333;BME280;3707;43.618;25.342;2023-02-16T04:19:25;101526.97;;;3.05;100.00
7333;BME280;3707;43.618;25.342;2023-02-16T04:21:51;101521.44;;;2.99;100.00
7333;BME280;3707;43.618;25.342;2023-02-16T04:24:18;101520.63;;;3.00;100.00
7333;BME280;3707;43.618;25.342;2023-02-16T04:26:45;101523.63;;;3.06;100.00
7333;BME280;3707;43.618;25.342;2023-02-16T04:29:14;101522.22;;;3.11;100.00
7333;BME280;3707;43.618;25.342;2023-02-16T04:31:40;101525.63;;;3.23;100.00
7333;BME280;3707;43.618;25.342;2023-02-16T04:34:07;101525.72;;;3.25;100.00
7333;BME280;3707;43.618;25.342;2023-02-16T04:36:35;101521.47;;;3.25;100.00
7333;BME280;3707;43.618;25.342;2023-02-16T04:39:03;101522.56;;;3.16;100.00
7333;BME280;3707;43.618;25.342;2023-02-16T04:41:30;101513.38;;;3.06;100.00
7333;BME280;3707;43.618;25.342;2023-02-16T04:43:57;101532.47;;;3.11;100.00
7333;BME280;3707;43.618;25.342;2023-02-16T04:46:24;101536.06;;;3.13;100.00
7333;BME280;3707;43.618;25.342;2023-02-16T04:48:51;101539.19;;;3.09;100.00
7333;BME280;3707;43.618;25.342;2023-02-16T04:51:17;101537.41;;;3.08;100.00
7333;BME280;3707;43.618;25.342;2023-02-16T04:53:46;101541.03;;;2.98;100.00
7333;BME280;3707;43.618;25.342;2023-02-16T04:56:13;101548.22;;;2.79;100.00
7333;BME280;3707;43.618;25.342;2023-02-16T04:58:40;101537.03;;;2.66;100.00
7333;BME280;3707;43.618;25.342;2023-02-16T05:01:07;101539.53;;;2.53;100.00
7333;BME280;3707;43.618;25.342;2023-02-16T05:03:34;101535.41;;;2.43;100.00
7333;BME280;3707;43.618;25.342;2023-02-16T05:06:00;101539.22;;;2.36;100.00
7333;BME280;3707;43.618;25.342;2023-02-16T05:08:27;101539.47;;;2.28;100.00
7333;BME280;3707;43.618;25.342;2023-02-16T05:10:55;101536.56;;;2.23;100.00
7333;BME280;3707;43.618;25.342;2023-02-16T05:13:36;101542.81;;;2.15;100.00
7333;BME280;3707;43.618;25.342;2023-02-16T05:16:21;101543.69;;;2.16;100.00
7333;BME280;3707;43.618;25.342;2023-02-16T05:18:48;101544.16;;;2.10;100.00
7333;BME280;3707;43.618;25.342;2023-02-16T05:21:15;101524.25;;;1.94;100.00
7333;BME280;3707;43.618;25.342;2023-02-16T05:23:58;101542.81;;;2.04;100.00
7333;BME280;3707;43.618;25.342;2023-02-16T05:26:27;101536.47;;;2.10;100.00
7333;BME280;3707;43.618;25.342;2023-02-16T05:28:55;101505.56;;;1.84;100.00
7333;BME280;3707;43.618;25.342;2023-02-16T05:31:22;101519.69;;;1.90;100.00
7333;BME280;3707;43.618;25.342;2023-02-16T05:33:50;101529.91;;;2.02;100.00
7333;BME280;3707;43.618;25.342;2023-02-16T05:36:17;101541.81;;;2.02;100.00
7333;BME280;3707;43.618;25.342;2023-02-16T05:38:44;101547.50;;;2.09;100.00
7333;BME280;3707;43.618;25.342;2023-02-16T05:41:11;101541.25;;;2.17;100.00
7333;BME280;3707;43.618;25.342;2023-02-16T05:43:49;101543.34;;;2.34;100.00
7333;BME280;3707;43.618;25.342;2023-02-16T05:46:16;101540.31;;;2.40;100.00
7333;BME280;3707;43.618;25.342;2023-02-16T05:48:43;101548.75;;;2.50;100.00
7333;BME280;3707;43.618;25.342;2023-02-16T05:51:10;101539.25;;;2.97;100.00
7333;BME280;3707;43.618;25.342;2023-02-16T05:53:36;101538.66;;;3.02;100.00
7333;BME280;3707;43.618;25.342;2023-02-16T05:56:04;101545.47;;;3.01;100.00
7333;BME280;3707;43.618;25.342;2023-02-16T05:58:31;101549.59;;;2.99;100.00
7333;BME280;3707;43.618;25.342;2023-02-16T06:00:59;101550.78;;;3.04;100.00
7333;BME280;3707;43.618;25.342;2023-02-16T06:03:26;101564.78;;;2.96;100.00
7333;BME280;3707;43.618;25.342;2023-02-16T06:05:54;101564.16;;;3.00;100.00
7333;BME280;3707;43.618;25.342;2023-02-16T06:08:21;101550.53;;;2.88;100.00
7333;BME280;3707;43.618;25.342;2023-02-16T06:10:49;101577.09;;;3.02;100.00
7333;BME280;3707;43.618;25.342;2023-02-16T06:13:17;101554.53;;;2.96;100.00
7333;BME280;3707;43.618;25.342;2023-02-16T06:15:45;101567.47;;;3.11;100.00
7333;BME280;3707;43.618;25.342;2023-02-16T06:18:13;101577.19;;;3.53;100.00
7333;BME280;3707;43.618;25.342;2023-02-16T06:20:40;101560.06;;;3.78;100.00
7333;BME280;3707;43.618;25.342;2023-02-16T06:23:10;101570.09;;;3.62;100.00
7333;BME280;3707;43.618;25.342;2023-02-16T06:25:40;101582.25;;;3.39;100.00
7333;BME280;3707;43.618;25.342;2023-02-16T06:28:07;101594.84;;;3.23;100.00
7333;BME280;3707;43.618;25.342;2023-02-16T06:30:34;101591.06;;;3.18;100.00
7333;BME280;3707;43.618;25.342;2023-02-16T06:33:01;101586.94;;;3.20;100.00
7333;BME280;3707;43.618;25.342;2023-02-16T06:35:29;101582.69;;;3.45;100.00
7333;BME280;3707;43.618;25.342;2023-02-16T06:37:56;101578.88;;;3.65;100.00
7333;BME280;3707;43.618;25.342;2023-02-16T06:40:23;101564.75;;;3.59;100.00
7333;BME280;3707;43.618;25.342;2023-02-16T06:42:50;101580.53;;;3.65;100.00
7333;BME280;3707;43.618;25.342;2023-02-16T06:45:17;101604.84;;;3.70;100.00
7333;BME280;3707;43.618;25.342;2023-02-16T06:47:44;101580.34;;;3.62;100.00
7333;BME280;3707;43.618;25.342;2023-02-16T06:50:11;101596.75;;;3.77;100.00
7333;BME280;3707;43.618;25.342;2023-02-16T06:52:40;101597.53;;;3.89;100.00
7333;BME280;3707;43.618;25.342;2023-02-16T06:55:07;101600.63;;;3.96;100.00
7333;BME280;3707;43.618;25.342;2023-02-16T06:57:34;101595.03;;;4.02;100.00
7333;BME280;3707;43.618;25.342;2023-02-16T07:00:02;101601.16;;;4.17;100.00
7333;BME280;3707;43.618;25.342;2023-02-16T07:02:30;101594.81;;;4.25;100.00
7333;BME280;3707;43.618;25.342;2023-02-16T07:04:56;101602.69;;;4.28;100.00
7333;BME280;3707;43.618;25.342;2023-02-16T07:07:23;101598.06;;;4.36;100.00
7333;BME280;3707;43.618;25.342;2023-02-16T07:09:51;101584.72;;;4.28;100.00
7333;BME280;3707;43.618;25.342;2023-02-16T07:12:18;101600.63;;;4.36;100.00
7333;BME280;3707;43.618;25.342;2023-02-16T07:14:45;101595.91;;;4.42;100.00
7333;BME280;3707;43.618;25.342;2023-02-16T07:17:15;101595.38;;;4.61;100.00
7333;BME280;3707;43.618;25.342;2023-02-16T07:19:42;101602.47;;;4.65;100.00
7333;BME280;3707;43.618;25.342;2023-02-16T07:22:09;101599.41;;;4.70;100.00
7333;BME280;3707;43.618;25.342;2023-02-16T07:24:36;101586.56;;;4.70;100.00
7333;BME280;3707;43.618;25.342;2023-02-16T07:27:04;101610.63;;;4.98;100.00
7333;BME280;3707;43.618;25.342;2023-02-16T07:29:31;101600.81;;;4.93;100.00
7333;BME280;3707;43.618;25.342;2023-02-16T07:31:58;101607.22;;;4.99;100.00
7333;BME280;3707;43.618;25.342;2023-02-16T07:34:24;101583.25;;;4.86;100.00
7333;BME280;3707;43.618;25.342;2023-02-16T07:36:51;101606.06;;;5.22;100.00
7333;BME280;3707;43.618;25.342;2023-02-16T07:39:18;101592.78;;;5.29;100.00
7333;BME280;3707;43.618;25.342;2023-02-16T07:41:45;101612.19;;;5.52;100.00
7333;BME280;3707;43.618;25.342;2023-02-16T07:44:13;101601.94;;;5.39;100.00
7333;BME280;3707;43.618;25.342;2023-02-16T07:46:40;101587.56;;;5.28;100.00
7333;BME280;3707;43.618;25.342;2023-02-16T07:49:06;101602.94;;;5.41;100.00
7333;BME280;3707;43.618;25.342;2023-02-16T07:51:33;101601.22;;;5.27;100.00
7333;BME280;3707;43.618;25.342;2023-02-16T07:54:00;101599.09;;;5.34;100.00
7333;BME280;3707;43.618;25.342;2023-02-16T07:56:29;101588.56;;;5.44;100.00
7333;BME280;3707;43.618;25.342;2023-02-16T07:58:59;101593.91;;;5.62;100.00
7333;BME280;3707;43.618;25.342;2023-02-16T08:01:28;101572.97;;;5.56;100.00
7333;BME280;3707;43.618;25.342;2023-02-16T08:03:55;101594.81;;;5.63;100.00
7333;BME280;3707;43.618;25.342;2023-02-16T08:06:22;101591.41;;;5.78;100.00
7333;BME280;3707;43.618;25.342;2023-02-16T08:08:49;101582.38;;;5.85;100.00
7333;BME280;3707;43.618;25.342;2023-02-16T08:11:17;101608.56;;;6.07;100.00
7333;BME280;3707;43.618;25.342;2023-02-16T08:13:45;101602.28;;;6.17;100.00
7333;BME280;3707;43.618;25.342;2023-02-16T08:16:14;101575.94;;;6.06;100.00
7333;BME280;3707;43.618;25.342;2023-02-16T08:18:42;101592.47;;;6.26;100.00
7333;BME280;3707;43.618;25.342;2023-02-16T08:21:10;101606.53;;;6.31;100.00
7333;BME280;3707;43.618;25.342;2023-02-16T08:23:40;101580.84;;;6.32;100.00
7333;BME280;3707;43.618;25.342;2023-02-16T08:26:08;101606.81;;;6.52;100.00
7333;BME280;3707;43.618;25.342;2023-02-16T08:28:35;101579.13;;;6.47;100.00
7333;BME280;3707;43.618;25.342;2023-02-16T08:31:04;101601.53;;;6.65;100.00
7333;BME280;3707;43.618;25.342;2023-02-16T08:33:32;101607.03;;;6.71;100.00
7333;BME280;3707;43.618;25.342;2023-02-16T08:36:00;101612.00;;;6.68;100.00
7333;BME280;3707;43.618;25.342;2023-02-16T08:38:27;101607.69;;;6.67;100.00
7333;BME280;3707;43.618;25.342;2023-02-16T08:40:57;101605.91;;;6.66;100.00
7333;BME280;3707;43.618;25.342;2023-02-16T08:43:24;101607.91;;;6.71;100.00
7333;BME280;3707;43.618;25.342;2023-02-16T08:45:51;101587.34;;;6.87;100.00
7333;BME280;3707;43.618;25.342;2023-02-16T08:48:18;101608.44;;;6.96;100.00
7333;BME280;3707;43.618;25.342;2023-02-16T08:50:46;101607.31;;;7.08;100.00
7333;BME280;3707;43.618;25.342;2023-02-16T08:53:19;101606.03;;;7.32;100.00
7333;BME280;3707;43.618;25.342;2023-02-16T08:55:51;101598.34;;;7.49;100.00
7333;BME280;3707;43.618;25.342;2023-02-16T08:58:18;101597.41;;;7.47;100.00
7333;BME280;3707;43.618;25.342;2023-02-16T09:00:45;101580.63;;;7.39;100.00
7333;BME280;3707;43.618;25.342;2023-02-16T09:03:12;101586.44;;;7.52;100.00
7333;BME280;3707;43.618;25.342;2023-02-16T09:05:40;101602.88;;;7.54;100.00
7333;BME280;3707;43.618;25.342;2023-02-16T09:08:07;101601.56;;;7.62;100.00
7333;BME280;3707;43.618;25.342;2023-02-16T09:10:35;101601.06;;;7.69;100.00
7333;BME280;3707;43.618;25.342;2023-02-16T09:13:03;101595.72;;;7.82;100.00
7333;BME280;3707;43.618;25.342;2023-02-16T09:15:31;101597.28;;;7.96;100.00
7333;BME280;3707;43.618;25.342;2023-02-16T09:17:58;101600.69;;;7.95;100.00
7333;BME280;3707;43.618;25.342;2023-02-16T09:20:24;101588.06;;;8.01;100.00
7333;BME280;3707;43.618;25.342;2023-02-16T09:22:51;101601.13;;;8.04;100.00
7333;BME280;3707;43.618;25.342;2023-02-16T09:25:18;101599.38;;;8.21;100.00
7333;BME280;3707;43.618;25.342;2023-02-16T09:27:46;101598.69;;;8.41;100.00
7333;BME280;3707;43.618;25.342;2023-02-16T09:30:14;101585.09;;;8.45;100.00
7333;BME280;3707;43.618;25.342;2023-02-16T09:32:40;101595.72;;;8.51;100.00
7333;BME280;3707;43.618;25.342;2023-02-16T09:35:08;101604.34;;;8.69;100.00
7333;BME280;3707;43.618;25.342;2023-02-16T09:37:35;101596.13;;;8.78;100.00
7333;BME280;3707;43.618;25.342;2023-02-16T09:40:02;101594.47;;;8.98;100.00
7333;BME280;3707;43.618;25.342;2023-02-16T09:42:38;101605.69;;;8.98;100.00
7333;BME280;3707;43.618;25.342;2023-02-16T09:45:13;101599.56;;;9.15;100.00
7333;BME280;3707;43.618;25.342;2023-02-16T09:47:43;101596.00;;;9.13;99.05
7333;BME280;3707;43.618;25.342;2023-02-16T09:50:14;101581.19;;;9.09;96.39
7333;BME280;3707;43.618;25.342;2023-02-16T09:52:46;101589.78;;;9.27;96.69
7333;BME280;3707;43.618;25.342;2023-02-16T09:55:17;101590.84;;;9.13;94.85
7333;BME280;3707;43.618;25.342;2023-02-16T09:57:56;101599.56;;;9.15;94.05
7333;BME280;3707;43.618;25.342;2023-02-16T10:00:39;101587.84;;;9.42;93.00
7333;BME280;3707;43.618;25.342;2023-02-16T10:03:18;101585.78;;;9.55;89.58
7333;BME280;3707;43.618;25.342;2023-02-16T10:05:57;101587.28;;;9.50;87.18
7333;BME280;3707;43.618;25.342;2023-02-16T10:08:31;101588.59;;;9.59;84.78
7333;BME280;3707;43.618;25.342;2023-02-16T10:11:06;101569.63;;;9.60;83.61
7333;BME280;3707;43.618;25.342;2023-02-16T10:14:01;101584.16;;;9.57;82.19
7333;BME280;3707;43.618;25.342;2023-02-16T10:16:36;101553.72;;;9.72;82.08
7333;BME280;3707;43.618;25.342;2023-02-16T10:19:16;101572.78;;;9.74;83.44
7333;BME280;3707;43.618;25.342;2023-02-16T10:21:46;101544.38;;;9.35;85.12
7333;BME280;3707;43.618;25.342;2023-02-16T10:24:15;101568.88;;;9.63;84.19
7333;BME280;3707;43.618;25.342;2023-02-16T10:26:45;101509.13;;;9.37;82.86
7333;BME280;3707;43.618;25.342;2023-02-16T10:29:14;101559.44;;;9.84;83.40
7333;BME280;3707;43.618;25.342;2023-02-16T10:31:47;101560.94;;;9.79;81.92
7333;BME280;3707;43.618;25.342;2023-02-16T10:34:31;101554.94;;;9.80;82.52
7333;BME280;3707;43.618;25.342;2023-02-16T10:40:09;101550.97;;;9.88;81.16
7333;BME280;3707;43.618;25.342;2023-02-16T10:42:45;101554.50;;;9.90;80.39
7333;BME280;3707;43.618;25.342;2023-02-16T10:45:20;101535.66;;;9.94;79.75
7333;BME280;3707;43.618;25.342;2023-02-16T10:47:49;101544.88;;;10.08;79.54
7333;BME280;3707;43.618;25.342;2023-02-16T10:50:22;101546.38;;;10.03;78.50
7333;BME280;3707;43.618;25.342;2023-02-16T10:52:51;101545.38;;;10.20;77.94
7333;BME280;3707;43.618;25.342;2023-02-16T10:55:20;101545.25;;;10.17;77.69
7333;BME280;3707;43.618;25.342;2023-02-16T10:57:52;101534.91;;;10.39;77.24
7333;BME280;3707;43.618;25.342;2023-02-16T11:00:25;101515.00;;;10.38;76.14
7333;BME280;3707;43.618;25.342;2023-02-16T11:02:55;101528.03;;;10.40;74.85
7333;BME280;3707;43.618;25.342;2023-02-16T11:05:40;101524.84;;;10.47;74.39
7333;BME280;3707;43.618;25.342;2023-02-16T11:08:08;101440.06;;;9.79;74.15
7333;BME280;3707;43.618;25.342;2023-02-16T11:10:43;101502.88;;;10.15;74.79
7333;BME280;3707;43.618;25.342;2023-02-16T11:13:24;101516.75;;;10.17;74.08
7333;BME280;3707;43.618;25.342;2023-02-16T11:15:53;101503.59;;;10.13;74.17
7333;BME280;3707;43.618;25.342;2023-02-16T11:18:28;101512.53;;;10.19;74.66
7333;BME280;3707;43.618;25.342;2023-02-16T11:20:58;101508.06;;;10.37;74.26
7333;BME280;3707;43.618;25.342;2023-02-16T11:23:27;101503.06;;;10.20;73.21
7333;BME280;3707;43.618;25.342;2023-02-16T11:25:56;101495.53;;;10.27;73.94
7333;BME280;3707;43.618;25.342;2023-02-16T11:28:29;101484.13;;;10.44;73.61
7333;BME280;3707;43.618;25.342;2023-02-16T11:31:04;101462.22;;;10.60;73.35
7333;BME280;3707;43.618;25.342;2023-02-16T11:33:37;101483.84;;;10.83;72.64
7333;BME280;3707;43.618;25.342;2023-02-16T11:36:18;101474.16;;;10.79;71.22
7333;BME280;3707;43.618;25.342;2023-02-16T11:38:55;101471.41;;;10.74;70.89
7333;BME280;3707;43.618;25.342;2023-02-16T11:41:23;101469.41;;;10.67;71.48
7333;BME280;3707;43.618;25.342;2023-02-16T11:43:51;101462.31;;;10.62;70.58
7333;BME280;3707;43.618;25.342;2023-02-16T11:46:19;101469.69;;;10.75;68.55
7333;BME280;3707;43.618;25.342;2023-02-16T11:48:48;101459.22;;;10.72;69.12
7333;BME280;3707;43.618;25.342;2023-02-16T11:51:29;101432.09;;;10.64;69.78
7333;BME280;3707;43.618;25.342;2023-02-16T11:54:00;101445.19;;;10.67;69.88
7333;BME280;3707;43.618;25.342;2023-02-16T11:56:28;101443.56;;;10.70;71.50
7333;BME280;3707;43.618;25.342;2023-02-16T11:59:04;101439.13;;;10.90;70.89
7333;BME280;3707;43.618;25.342;2023-02-16T12:04:33;101432.25;;;10.92;70.01
7333;BME280;3707;43.618;25.342;2023-02-16T12:07:13;101423.75;;;10.96;69.55
7333;BME280;3707;43.618;25.342;2023-02-16T12:09:50;101420.97;;;11.15;68.36
7333;BME280;3707;43.618;25.342;2023-02-16T12:12:30;101393.13;;;11.11;65.51
7333;BME280;3707;43.618;25.342;2023-02-16T12:15:03;101408.50;;;11.30;65.57
7333;BME280;3707;43.618;25.342;2023-02-16T12:17:45;101413.25;;;11.43;65.61
7333;BME280;3707;43.618;25.342;2023-02-16T12:20:32;101404.25;;;11.32;65.13
7333;BME280;3707;43.618;25.342;2023-02-16T12:23:13;101401.22;;;11.20;65.50
7333;BME280;3707;43.618;25.342;2023-02-16T12:25:48;101393.75;;;11.29;65.50
7333;BME280;3707;43.618;25.342;2023-02-16T12:28:24;101405.41;;;11.42;66.26
7333;BME280;3707;43.618;25.342;2023-02-16T12:31:02;101395.75;;;11.38;66.07
7333;BME280;3707;43.618;25.342;2023-02-16T12:33:39;101394.75;;;11.33;66.03
7333;BME280;3707;43.618;25.342;2023-02-16T12:36:26;101386.88;;;11.31;66.46
7333;BME280;3707;43.618;25.342;2023-02-16T12:39:02;101379.78;;;11.26;69.27
7333;BME280;3707;43.618;25.342;2023-02-16T12:41:40;101383.66;;;11.38;68.99
7333;BME280;3707;43.618;25.342;2023-02-16T12:44:15;101376.59;;;11.34;67.39
7333;BME280;3707;43.618;25.342;2023-02-16T12:46:45;101358.31;;;11.31;67.41
7333;BME280;3707;43.618;25.342;2023-02-16T12:49:16;101367.78;;;11.29;67.17
7333;BME280;3707;43.618;25.342;2023-02-16T12:51:49;101339.38;;;11.34;79.85
7333;BME280;3707;43.618;25.342;2023-02-16T12:54:21;101371.31;;;11.58;69.76
7333;BME280;3707;43.618;25.342;2023-02-16T12:56:53;101370.34;;;11.55;67.23
7333;BME280;3707;43.618;25.342;2023-02-16T12:59:33;101366.19;;;11.34;66.46
7333;BME280;3707;43.618;25.342;2023-02-16T13:02:04;101367.00;;;11.32;66.69
7333;BME280;3707;43.618;25.342;2023-02-16T13:04:41;101365.53;;;11.40;67.18
7333;BME280;3707;43.618;25.342;2023-02-16T13:07:14;101332.31;;;11.30;67.59
7333;BME280;3707;43.618;25.342;2023-02-16T13:09:50;101339.81;;;11.48;72.44
7333;BME280;3707;43.618;25.342;2023-02-16T13:12:25;101318.56;;;11.61;90.78
7333;BME280;3707;43.618;25.342;2023-02-16T13:15:02;101354.06;;;11.87;82.95
7333;BME280;3707;43.618;25.342;2023-02-16T13:17:33;101329.78;;;11.86;73.55
7333;BME280;3707;43.618;25.342;2023-02-16T13:20:00;101343.28;;;11.75;66.85
7333;BME280;3707;43.618;25.342;2023-02-16T13:22:40;101337.44;;;11.82;69.85
7333;BME280;3707;43.618;25.342;2023-02-16T13:25:27;101334.94;;;11.85;66.96
7333;BME280;3707;43.618;25.342;2023-02-16T13:28:06;101330.28;;;11.73;66.37
7333;BME280;3707;43.618;25.342;2023-02-16T13:30:56;101324.75;;;11.64;65.59
7333;BME280;3707;43.618;25.342;2023-02-16T13:33:46;101322.50;;;11.75;66.46